KMPV

Edward F Knapp State Airport

Barre/Montpelier, Vermont, USA
METAR KMPV 230830Z AUTO 28004KT 10SM FEW006 BKN027 OVC032 12/12 A2991 RMK AO2 T01220122
Observed Flight Rules
May-23 @ 08:30 UTC (22 minutes ago) Marginal Visual Flight Rules
Wind Visibility Clouds
280° at 4 knots 10 miles
  • Few at 600' AGL
  • Broken at 2,700' AGL
  • Overcast at 3,200' AGL
Temperatures Readings
Current 12°C / 54°F
Dewpoint 12°C / 54°F
Humidity 100%
Altimeter 29.91" Hg
Pressure 1013 hPa
Elevation 343
METAR KMPV 230830Z AUTO 28004KT 10SM FEW006 BKN027 OVC032 12/12 A2991 RMK AO2 T01220122
Observed Flight Rules
May-23 @ 08:30 UTC
(22 minutes ago)
MVFR
Wind Visibility
280° at 4 knots 10 miles
Clouds
  • Few at 600' AGL
  • Broken at 2,700' AGL
  • Overcast at 3,200' AGL
Temperature Dewpoint
12°C / 54°F 12°C / 54°F
Humidity Altimeter Pressure
100% 29.91" Hg 1013 hPa